Time;durP1;ratioP1;P1;durP2;ratioP2;P2;SDS_P1;SDS_P2;PMS_P1;PMS_P2;Temp;Humidity;BMP_temperature;BMP_pressure;BME280_temperature;BME280_humidity;BME280_pressure;Samples;Min_cycle;Max_cycle;Signal;HPM_P1;HPM_P2
2024/01/15 00:00:47;;;;;;;131.37;61.53;;;;;;;;;;5018323;28;20131;-47
2024/01/15 00:03:13;;;;;;;157.37;63.33;;;;;;;;;;5034698;28;20024;-48
2024/01/15 00:05:39;;;;;;;139.80;59.83;;;;;;;;;;5052701;28;20376;-49
2024/01/15 00:08:05;;;;;;;181.37;65.33;;;;;;;;;;5052556;28;20123;-48
2024/01/15 00:10:31;;;;;;;118.13;58.03;;;;;;;;;;5052695;28;20025;-49
2024/01/15 00:12:58;;;;;;;201.35;64.82;;;;;;;;;;5018093;28;20295;-49
2024/01/15 00:15:24;;;;;;;121.45;55.72;;;;;;;;;;5034140;28;20475;-47
2024/01/15 00:17:50;;;;;;;117.13;57.17;;;;;;;;;;5052084;28;21404;-47
2024/01/15 00:20:16;;;;;;;112.33;54.73;;;;;;;;;;5052596;28;20025;-48
2024/01/15 00:22:42;;;;;;;129.15;60.70;;;;;;;;;;5034837;28;20582;-49
2024/01/15 00:25:09;;;;;;;144.03;63.47;;;;;;;;;;5052090;28;20021;-47
2024/01/15 00:27:35;;;;;;;122.43;60.60;;;;;;;;;;5034673;28;20027;-48
2024/01/15 00:30:02;;;;;;;111.60;58.77;;;;;;;;;;5051817;28;20029;-46
2024/01/15 00:32:28;;;;;;;115.28;57.83;;;;;;;;;;5014627;28;20022;-50
2024/01/15 00:34:54;;;;;;;116.70;56.20;;;;;;;;;;5027902;28;20025;-48
2024/01/15 00:37:20;;;;;;;104.88;53.55;;;;;;;;;;5034571;28;20024;-47
2024/01/15 00:39:46;;;;;;;99.50;54.60;;;;;;;;;;5033929;28;20078;-47
2024/01/15 00:42:13;;;;;;;116.33;55.13;;;;;;;;;;5017790;28;20032;-48
2024/01/15 00:44:39;;;;;;;97.60;50.67;;;;;;;;;;5033565;28;20033;-47
2024/01/15 00:47:05;;;;;;;100.60;52.40;;;;;;;;;;5034163;28;20579;-47
2024/01/15 00:49:31;;;;;;;101.53;53.20;;;;;;;;;;5052099;28;20029;-47
2024/01/15 00:51:57;;;;;;;100.77;56.20;;;;;;;;;;5034066;28;20037;-48
2024/01/15 00:54:24;;;;;;;99.47;53.33;;;;;;;;;;5033809;28;20139;-48
2024/01/15 00:56:50;;;;;;;100.80;56.78;;;;;;;;;;5051748;28;20025;-48
2024/01/15 00:59:16;;;;;;;93.17;49.80;;;;;;;;;;5033661;28;20032;-47
2024/01/15 01:01:43;;;;;;;96.07;52.80;;;;;;;;;;5033874;28;20398;-47
2024/01/15 01:04:09;;;;;;;;;;;;;;;;;;5051965;28;20066;-47
2024/01/15 01:06:35;;;;;;;94.18;49.90;;;;;;;;;;5051439;28;19920;-47
2024/01/15 01:09:02;;;;;;;92.72;49.95;;;;;;;;;;5033672;28;20033;-50
2024/01/15 01:11:28;;;;;;;99.80;52.93;;;;;;;;;;5030158;28;20033;-46
2024/01/15 01:13:56;;;;;;;95.43;52.37;;;;;;;;;;5051396;28;20031;-47
2024/01/15 01:16:25;;;;;;;108.22;56.05;;;;;;;;;;5051548;28;20065;-47
2024/01/15 01:18:51;;;;;;;104.82;55.28;;;;;;;;;;5033474;28;20479;-48
2024/01/15 01:21:17;;;;;;;110.50;57.00;;;;;;;;;;4997977;28;20040;-50
2024/01/15 01:23:44;;;;;;;120.83;56.67;;;;;;;;;;5031155;28;20509;-48
2024/01/15 01:26:10;;;;;;;108.23;55.20;;;;;;;;;;5033335;28;20033;-48
2024/01/15 01:28:38;;;;;;;101.78;52.08;;;;;;;;;;5051346;28;20482;-46
2024/01/15 01:31:04;;;;;;;118.25;59.70;;;;;;;;;;5033202;28;20037;-50
2024/01/15 01:33:30;;;;;;;127.90;59.40;;;;;;;;;;5051237;28;20067;-50
2024/01/15 01:35:56;;;;;;;106.13;54.10;;;;;;;;;;5050913;28;20029;-50
2024/01/15 01:38:22;;;;;;;122.53;57.28;;;;;;;;;;5033725;28;20036;-49
2024/01/15 01:40:48;;;;;;;122.07;57.23;;;;;;;;;;5033974;28;20028;-51
2024/01/15 01:43:15;;;;;;;123.67;58.20;;;;;;;;;;5055442;28;20037;-50
2024/01/15 01:45:41;;;;;;;123.45;59.08;;;;;;;;;;5037292;28;20032;-50
2024/01/15 01:48:07;;;;;;;114.82;55.00;;;;;;;;;;5035490;28;20579;-47
2024/01/15 01:50:34;;;;;;;111.35;56.20;;;;;;;;;;5053323;28;20100;-47
2024/01/15 01:53:01;;;;;;;121.20;58.03;;;;;;;;;;5055272;28;20033;-47
2024/01/15 01:55:28;;;;;;;122.40;59.00;;;;;;;;;;5054557;28;20075;-47
2024/01/15 01:57:54;;;;;;;;;;;;;;;;;;5055530;28;20540;-47
2024/01/15 02:00:20;;;;;;;123.30;59.67;;;;;;;;;;5055251;28;19935;-47
2024/01/15 02:02:47;;;;;;;119.40;59.23;;;;;;;;;;5037373;28;20025;-47
2024/01/15 02:05:14;;;;;;;120.73;60.00;;;;;;;;;;5055059;28;20517;-48
2024/01/15 02:07:41;;;;;;;130.00;60.90;;;;;;;;;;5036964;28;20362;-47
2024/01/15 02:10:07;;;;;;;143.75;65.93;;;;;;;;;;5055474;28;20088;-48
2024/01/15 02:12:34;;;;;;;137.63;63.07;;;;;;;;;;5036871;28;20458;-46
2024/01/15 02:15:00;;;;;;;132.00;60.97;;;;;;;;;;5054851;28;20275;-48
2024/01/15 02:17:26;;;;;;;122.70;58.77;;;;;;;;;;5036993;28;20495;-47
2024/01/15 02:19:52;;;;;;;121.43;60.53;;;;;;;;;;5054799;28;20074;-47
2024/01/15 02:22:18;;;;;;;132.53;63.13;;;;;;;;;;5054781;28;20056;-48
2024/01/15 02:24:45;;;;;;;134.57;59.45;;;;;;;;;;5036772;28;20060;-48
2024/01/15 02:27:12;;;;;;;138.80;63.37;;;;;;;;;;5054782;28;20716;-47
2024/01/15 02:29:38;;;;;;;;;;;;;;;;;;5055138;28;20036;-47
2024/01/15 02:32:09;;;;;;;137.77;59.80;;;;;;;;;;5054577;28;19916;-47
2024/01/15 02:34:35;;;;;;;134.68;58.85;;;;;;;;;;5054551;28;20024;-47
2024/01/15 02:37:01;;;;;;;150.50;59.93;;;;;;;;;;5054597;28;20429;-47
2024/01/15 02:39:28;;;;;;;232.55;69.50;;;;;;;;;;5054360;28;20083;-47
2024/01/15 02:41:57;;;;;;;149.75;64.45;;;;;;;;;;5054424;28;20033;-47
2024/01/15 02:44:23;;;;;;;130.98;59.88;;;;;;;;;;5054275;28;20075;-47
2024/01/15 02:46:49;;;;;;;128.90;59.77;;;;;;;;;;5054456;28;20104;-47
2024/01/15 02:49:16;;;;;;;147.30;61.92;;;;;;;;;;5054327;28;20098;-48
2024/01/15 02:51:42;;;;;;;136.63;62.78;;;;;;;;;;5054201;28;20025;-47
2024/01/15 02:54:08;;;;;;;166.88;67.75;;;;;;;;;;5052694;28;20363;-48
2024/01/15 02:56:34;;;;;;;203.50;79.50;;;;;;;;;;5054111;28;20103;-47
2024/01/15 02:59:00;;;;;;;154.63;66.68;;;;;;;;;;5054161;28;20029;-49
2024/01/15 03:01:27;;;;;;;179.43;76.40;;;;;;;;;;5054089;28;20064;-48
2024/01/15 03:03:55;;;;;;;297.80;92.63;;;;;;;;;;5054268;28;20032;-48
2024/01/15 03:06:21;;;;;;;198.35;72.03;;;;;;;;;;5053715;28;20091;-48
2024/01/15 03:08:47;;;;;;;221.82;82.88;;;;;;;;;;5035218;28;20391;-47
2024/01/15 03:11:13;;;;;;;171.07;75.53;;;;;;;;;;5049526;28;20036;-47
2024/01/15 03:13:39;;;;;;;182.45;70.80;;;;;;;;;;5053494;28;20027;-49
2024/01/15 03:16:06;;;;;;;173.73;71.13;;;;;;;;;;5035846;28;20090;-48
2024/01/15 03:18:32;;;;;;;202.40;75.90;;;;;;;;;;5053236;28;20077;-46
2024/01/15 03:21:01;;;;;;;332.83;94.47;;;;;;;;;;5053383;28;20021;-48
2024/01/15 03:23:27;;;;;;;237.77;86.03;;;;;;;;;;5053436;28;20021;-47
2024/01/15 03:25:53;;;;;;;155.67;64.37;;;;;;;;;;5053633;28;20031;-47
2024/01/15 03:28:19;;;;;;;185.10;74.00;;;;;;;;;;5053528;28;20025;-48
2024/01/15 03:30:45;;;;;;;174.13;76.10;;;;;;;;;;5035733;28;20037;-47
2024/01/15 03:33:12;;;;;;;155.10;71.25;;;;;;;;;;5053537;28;20088;-49
2024/01/15 03:35:38;;;;;;;143.53;68.87;;;;;;;;;;5053287;28;20025;-47
2024/01/15 03:38:04;;;;;;;156.03;72.37;;;;;;;;;;5053165;28;20020;-49
2024/01/15 03:40:30;;;;;;;140.85;64.50;;;;;;;;;;5015763;28;20472;-50
2024/01/15 03:42:56;;;;;;;148.43;65.67;;;;;;;;;;5033391;28;20095;-47
2024/01/15 03:45:22;;;;;;;154.27;71.43;;;;;;;;;;5033219;28;20037;-50
2024/01/15 03:47:49;;;;;;;165.20;72.25;;;;;;;;;;5015471;28;20071;-48
2024/01/15 03:50:15;;;;;;;173.52;70.05;;;;;;;;;;5033259;28;20044;-49
2024/01/15 03:52:41;;;;;;;139.95;65.32;;;;;;;;;;5040762;28;20025;-47
2024/01/15 03:55:07;;;;;;;152.17;67.30;;;;;;;;;;5051940;28;20035;-49
2024/01/15 03:57:34;;;;;;;144.57;62.93;;;;;;;;;;5034104;28;20021;-47
2024/01/15 04:00:00;;;;;;;127.73;62.47;;;;;;;;;;5034569;28;20266;-51
2024/01/15 04:02:26;;;;;;;131.63;63.97;;;;;;;;;;5052441;28;20108;-47
2024/01/15 04:04:52;;;;;;;133.77;64.90;;;;;;;;;;5034040;28;20116;-47
2024/01/15 04:07:18;;;;;;;138.43;62.78;;;;;;;;;;5052845;28;20075;-46
2024/01/15 04:09:44;;;;;;;142.40;64.97;;;;;;;;;;5052898;28;20060;-47
2024/01/15 04:12:11;;;;;;;133.25;61.83;;;;;;;;;;5052546;28;20032;-47
2024/01/15 04:14:37;;;;;;;128.10;62.35;;;;;;;;;;5051971;28;20406;-47
2024/01/15 04:17:04;;;;;;;129.77;63.83;;;;;;;;;;5052485;28;20029;-50
2024/01/15 04:19:30;;;;;;;119.47;60.90;;;;;;;;;;5034530;28;20421;-48
2024/01/15 04:21:57;;;;;;;130.40;61.47;;;;;;;;;;5052625;28;20095;-48
2024/01/15 04:24:23;;;;;;;123.63;58.92;;;;;;;;;;5034204;28;20062;-49
2024/01/15 04:26:49;;;;;;;116.20;57.15;;;;;;;;;;5034779;28;20025;-50
2024/01/15 04:29:15;;;;;;;118.40;59.78;;;;;;;;;;5034611;28;20033;-53
2024/01/15 04:31:42;;;;;;;127.65;60.58;;;;;;;;;;5052224;28;20033;-54
2024/01/15 04:34:08;;;;;;;136.10;66.13;;;;;;;;;;5051607;28;20029;-50
2024/01/15 04:36:39;;;;;;;118.10;61.20;;;;;;;;;;5052038;28;20025;-50
2024/01/15 04:39:05;;;;;;;115.53;61.58;;;;;;;;;;5056835;22;20077;-48
2024/01/15 04:41:31;;;;;;;112.15;57.20;;;;;;;;;;5045847;28;20083;-48
2024/01/15 04:43:57;;;;;;;112.85;57.67;;;;;;;;;;5034879;28;20100;-51
2024/01/15 04:46:24;;;;;;;113.43;57.45;;;;;;;;;;5048748;28;20036;-48
2024/01/15 04:48:50;;;;;;;116.13;61.07;;;;;;;;;;5035861;28;20487;-49
2024/01/15 04:51:16;;;;;;;121.55;61.53;;;;;;;;;;5032090;28;20025;-52
2024/01/15 04:53:42;;;;;;;123.78;61.67;;;;;;;;;;5031875;28;20034;-46
2024/01/15 04:56:08;;;;;;;112.15;57.83;;;;;;;;;;5037987;28;20025;-49
2024/01/15 04:58:34;;;;;;;123.50;64.70;;;;;;;;;;5048578;28;20021;-47
2024/01/15 05:01:01;;;;;;;128.00;65.70;;;;;;;;;;5051735;28;20538;-48
2024/01/15 05:03:27;;;;;;;124.87;61.53;;;;;;;;;;5051728;28;20025;-47
2024/01/15 05:05:53;;;;;;;120.95;59.58;;;;;;;;;;5050643;28;20468;-47
2024/01/15 05:08:19;;;;;;;126.32;63.00;;;;;;;;;;5051782;28;20625;-50
2024/01/15 05:10:45;;;;;;;132.65;62.30;;;;;;;;;;5034145;28;20025;-48
2024/01/15 05:13:12;;;;;;;122.43;62.53;;;;;;;;;;5051821;28;20057;-47
2024/01/15 05:15:38;;;;;;;144.23;66.47;;;;;;;;;;5051052;28;20017;-47
2024/01/15 05:18:04;;;;;;;126.67;61.63;;;;;;;;;;5051889;28;20025;-50
2024/01/15 05:20:31;;;;;;;129.83;61.33;;;;;;;;;;5050778;28;20260;-52
2024/01/15 05:22:57;;;;;;;125.65;60.85;;;;;;;;;;5050528;28;20517;-48
2024/01/15 05:25:23;;;;;;;128.40;62.13;;;;;;;;;;5038306;28;20040;-47
2024/01/15 05:27:49;;;;;;;109.10;56.47;;;;;;;;;;5042808;28;20021;-48
2024/01/15 05:30:16;;;;;;;107.32;56.70;;;;;;;;;;5030398;28;20091;-49
2024/01/15 05:32:42;;;;;;;106.57;56.90;;;;;;;;;;5046893;28;20057;-48
2024/01/15 05:35:08;;;;;;;109.93;53.23;;;;;;;;;;5049489;28;20104;-54
2024/01/15 05:37:35;;;;;;;102.15;56.92;;;;;;;;;;5051548;28;20517;-51
2024/01/15 05:40:01;;;;;;;104.05;54.92;;;;;;;;;;5050130;28;20075;-51
2024/01/15 05:42:30;;;;;;;100.50;54.15;;;;;;;;;;5051561;28;20029;-48
2024/01/15 05:44:56;;;;;;;98.82;53.53;;;;;;;;;;5050025;28;20446;-48
2024/01/15 05:47:23;;;;;;;101.03;53.63;;;;;;;;;;5051501;28;20032;-49
2024/01/15 05:49:49;;;;;;;102.65;53.38;;;;;;;;;;5051316;28;20392;-49
2024/01/15 05:52:16;;;;;;;101.32;54.92;;;;;;;;;;5051313;28;20056;-52
2024/01/15 05:54:42;;;;;;;103.00;54.78;;;;;;;;;;5051314;28;20025;-50
2024/01/15 05:57:08;;;;;;;103.40;52.57;;;;;;;;;;5051856;28;20032;-48
2024/01/15 05:59:36;;;;;;;97.22;52.45;;;;;;;;;;5050111;28;20017;-50
2024/01/15 06:02:02;;;;;;;95.13;51.60;;;;;;;;;;5050201;28;20087;-49
2024/01/15 06:04:28;;;;;;;94.28;49.25;;;;;;;;;;5049946;28;20479;-49
2024/01/15 06:06:54;;;;;;;95.53;49.37;;;;;;;;;;5051230;28;20037;-52
2024/01/15 06:09:20;;;;;;;88.68;50.45;;;;;;;;;;5051100;28;20541;-49
2024/01/15 06:11:46;;;;;;;94.95;50.90;;;;;;;;;;5051163;28;20108;-48
2024/01/15 06:14:13;;;;;;;90.53;48.03;;;;;;;;;;5051112;28;20021;-51
2024/01/15 06:16:39;;;;;;;84.65;48.50;;;;;;;;;;5051281;28;20033;-53
2024/01/15 06:19:05;;;;;;;89.97;49.00;;;;;;;;;;5050031;28;20023;-53
2024/01/15 06:21:31;;;;;;;96.35;49.97;;;;;;;;;;5051274;28;20078;-52
2024/01/15 06:23:57;;;;;;;93.37;49.90;;;;;;;;;;5051367;28;20379;-53
2024/01/15 06:26:24;;;;;;;90.43;49.73;;;;;;;;;;5049980;28;20036;-53
2024/01/15 06:28:50;;;;;;;97.13;53.03;;;;;;;;;;5054461;28;20452;-53
2024/01/15 06:31:17;;;;;;;100.57;52.87;;;;;;;;;;5054775;28;20120;-52
2024/01/15 06:33:43;;;;;;;106.47;55.60;;;;;;;;;;5053594;28;20398;-50
2024/01/15 06:36:10;;;;;;;98.07;51.58;;;;;;;;;;5053421;28;20040;-50
2024/01/15 06:38:36;;;;;;;99.97;51.85;;;;;;;;;;5054698;28;20017;-49
2024/01/15 06:41:02;;;;;;;93.50;51.05;;;;;;;;;;5054809;28;20032;-52
2024/01/15 06:43:29;;;;;;;96.27;52.40;;;;;;;;;;5053110;28;20032;-53
2024/01/15 06:45:56;;;;;;;95.10;52.85;;;;;;;;;;5054562;28;20110;-48
2024/01/15 06:48:22;;;;;;;95.68;51.78;;;;;;;;;;5053524;28;20418;-48
2024/01/15 06:50:48;;;;;;;94.93;49.30;;;;;;;;;;5053112;28;20045;-52
2024/01/15 06:53:14;;;;;;;97.00;53.43;;;;;;;;;;5054260;28;20029;-51
2024/01/15 06:55:40;;;;;;;95.38;51.50;;;;;;;;;;5052902;28;20071;-51
2024/01/15 06:58:06;;;;;;;92.63;51.00;;;;;;;;;;5054222;28;20394;-48
2024/01/15 07:00:33;;;;;;;101.38;53.80;;;;;;;;;;5054400;28;20368;-50
2024/01/15 07:02:59;;;;;;;100.23;51.13;;;;;;;;;;5053016;28;20146;-53
2024/01/15 07:05:25;;;;;;;94.77;51.23;;;;;;;;;;5053212;28;20029;-53
2024/01/15 07:07:51;;;;;;;99.40;54.38;;;;;;;;;;5054534;28;20048;-53
2024/01/15 07:10:17;;;;;;;102.45;53.88;;;;;;;;;;5054009;28;20029;-52
2024/01/15 07:12:44;;;;;;;94.70;52.22;;;;;;;;;;5035980;28;20083;-49
2024/01/15 07:15:10;;;;;;;107.82;55.85;;;;;;;;;;5052600;28;20463;-48
2024/01/15 07:17:39;;;;;;;102.80;54.67;;;;;;;;;;5052677;28;20048;-53
2024/01/15 07:20:07;;;;;;;104.57;54.03;;;;;;;;;;5053760;28;20467;-52
2024/01/15 07:22:34;;;;;;;106.68;57.00;;;;;;;;;;5053856;28;20108;-48
2024/01/15 07:25:00;;;;;;;104.55;56.83;;;;;;;;;;5053535;28;20025;-47
2024/01/15 07:27:26;;;;;;;108.60;53.63;;;;;;;;;;5053790;28;20028;-50
2024/01/15 07:29:52;;;;;;;100.13;54.08;;;;;;;;;;5053674;28;20021;-48
2024/01/15 07:32:20;;;;;;;97.77;52.40;;;;;;;;;;5052295;28;20312;-48
2024/01/15 07:34:46;;;;;;;101.18;53.08;;;;;;;;;;5052004;28;20259;-49
2024/01/15 07:37:12;;;;;;;102.50;57.00;;;;;;;;;;5053552;28;20479;-52
2024/01/15 07:39:39;;;;;;;104.95;53.63;;;;;;;;;;5052492;28;20463;-47
2024/01/15 07:42:05;;;;;;;111.20;56.13;;;;;;;;;;5053315;28;20483;-52
2024/01/15 07:44:31;;;;;;;103.90;53.17;;;;;;;;;;5053404;28;20103;-51
2024/01/15 07:46:57;;;;;;;112.87;58.33;;;;;;;;;;5053427;28;20078;-50
2024/01/15 07:49:24;;;;;;;107.28;55.53;;;;;;;;;;5053151;28;20071;-51
2024/01/15 07:51:50;;;;;;;115.45;59.53;;;;;;;;;;5053190;28;20503;-51
2024/01/15 07:54:16;;;;;;;119.78;57.35;;;;;;;;;;5052949;28;20448;-52
2024/01/15 07:56:55;;;;;;;110.22;59.22;;;;;;;;;;5052064;28;20032;-53
2024/01/15 07:59:22;;;;;;;111.63;56.80;;;;;;;;;;5051887;28;20070;-49
2024/01/15 08:01:48;;;;;;;133.27;65.15;;;;;;;;;;5053091;28;20071;-48
2024/01/15 08:04:14;;;;;;;128.90;61.80;;;;;;;;;;5052725;28;20391;-49
2024/01/15 08:06:40;;;;;;;125.47;62.20;;;;;;;;;;5053223;28;20033;-52
2024/01/15 08:09:08;;;;;;;134.87;61.93;;;;;;;;;;5051660;28;20104;-52
2024/01/15 08:11:35;;;;;;;135.48;60.28;;;;;;;;;;5052998;28;20021;-49
2024/01/15 08:14:01;;;;;;;124.85;58.88;;;;;;;;;;5052916;28;20037;-49
2024/01/15 08:16:27;;;;;;;125.82;59.92;;;;;;;;;;5051548;28;20029;-50
2024/01/15 08:18:54;;;;;;;136.85;62.47;;;;;;;;;;5052567;28;20036;-52
2024/01/15 08:21:20;;;;;;;137.48;61.90;;;;;;;;;;5052568;28;20081;-50
2024/01/15 08:23:46;;;;;;;133.00;61.80;;;;;;;;;;5051315;28;20094;-48
2024/01/15 08:26:12;;;;;;;143.23;69.15;;;;;;;;;;5051346;28;20028;-48
2024/01/15 08:28:38;;;;;;;135.27;63.10;;;;;;;;;;5052533;28;20032;-52
2024/01/15 08:31:04;;;;;;;144.90;64.50;;;;;;;;;;5052417;28;20056;-48
2024/01/15 08:33:31;;;;;;;139.38;64.82;;;;;;;;;;5051144;28;20380;-51
2024/01/15 08:35:57;;;;;;;142.50;62.22;;;;;;;;;;5052409;28;20052;-49
2024/01/15 08:38:23;;;;;;;144.02;66.57;;;;;;;;;;5050970;28;20029;-52
2024/01/15 08:40:51;;;;;;;144.85;66.22;;;;;;;;;;5052398;28;20390;-50
2024/01/15 08:43:17;;;;;;;152.27;65.05;;;;;;;;;;5051010;28;20029;-50
2024/01/15 08:45:43;;;;;;;155.90;72.05;;;;;;;;;;5052123;28;20033;-52
2024/01/15 08:48:09;;;;;;;173.30;80.63;;;;;;;;;;5051121;28;20040;-51
2024/01/15 08:50:35;;;;;;;154.00;65.37;;;;;;;;;;5050910;28;20032;-52
2024/01/15 08:53:02;;;;;;;199.48;88.57;;;;;;;;;;5050803;28;20132;-49
2024/01/15 08:55:28;;;;;;;164.85;69.57;;;;;;;;;;5051897;28;20060;-53
2024/01/15 08:57:55;;;;;;;162.30;71.20;;;;;;;;;;5051988;28;20052;-49
2024/01/15 09:00:21;;;;;;;166.35;77.22;;;;;;;;;;5051811;28;20074;-51
2024/01/15 09:02:47;;;;;;;154.68;69.93;;;;;;;;;;5051790;28;20398;-50
2024/01/15 09:05:13;;;;;;;170.10;74.25;;;;;;;;;;5051795;28;20040;-48
2024/01/15 09:07:39;;;;;;;166.20;74.15;;;;;;;;;;5051853;28;20048;-48
2024/01/15 09:10:06;;;;;;;179.50;73.07;;;;;;;;;;5050683;28;20053;-50
2024/01/15 09:12:32;;;;;;;160.13;69.65;;;;;;;;;;5051801;28;20578;-50
2024/01/15 09:14:59;;;;;;;157.67;67.17;;;;;;;;;;5051565;28;20491;-49
2024/01/15 09:17:25;;;;;;;152.45;71.57;;;;;;;;;;5050433;28;20259;-49
2024/01/15 09:19:51;;;;;;;152.10;70.90;;;;;;;;;;5051593;28;20033;-52
2024/01/15 09:22:18;;;;;;;161.85;71.95;;;;;;;;;;5051712;28;20033;-48
2024/01/15 09:24:45;;;;;;;146.60;66.05;;;;;;;;;;5051538;28;20033;-48
2024/01/15 09:27:11;;;;;;;144.40;67.90;;;;;;;;;;5051625;28;20107;-50
2024/01/15 09:29:39;;;;;;;139.53;64.60;;;;;;;;;;5050242;28;20036;-49
2024/01/15 09:32:07;;;;;;;145.45;70.22;;;;;;;;;;5051311;28;20040;-49
2024/01/15 09:34:34;;;;;;;139.15;69.45;;;;;;;;;;5051351;28;20033;-49
2024/01/15 09:37:00;;;;;;;144.20;69.25;;;;;;;;;;5051558;28;20040;-48
2024/01/15 09:39:27;;;;;;;132.50;68.13;;;;;;;;;;5050077;28;20036;-47
2024/01/15 09:41:54;;;;;;;132.38;66.65;;;;;;;;;;5051387;28;20515;-49
2024/01/15 09:44:20;;;;;;;;;;;;;;;;;;5050322;28;20036;-49
2024/01/15 09:46:50;;;;;;;122.57;63.83;;;;;;;;;;5050145;28;19955;-48
2024/01/15 09:49:16;;;;;;;116.55;61.13;;;;;;;;;;5050058;28;20044;-48
2024/01/15 09:51:43;;;;;;;114.03;63.20;;;;;;;;;;5051347;28;20403;-48
2024/01/15 09:54:10;;;;;;;116.53;60.70;;;;;;;;;;5050136;28;20025;-48
2024/01/15 09:56:36;;;;;;;109.05;62.13;;;;;;;;;;5051223;28;20122;-48
2024/01/15 09:59:04;;;;;;;108.13;60.15;;;;;;;;;;5033287;28;20032;-48
2024/01/15 10:01:31;;;;;;;106.97;56.92;;;;;;;;;;5050014;28;20029;-49
2024/01/15 10:03:58;;;;;;;117.50;63.50;;;;;;;;;;5054859;28;20488;-48
2024/01/15 10:06:27;;;;;;;102.85;60.33;;;;;;;;;;5055389;28;20376;-48
2024/01/15 10:08:54;;;;;;;106.45;61.45;;;;;;;;;;5037516;28;20483;-49
2024/01/15 10:11:21;;;;;;;103.60;60.15;;;;;;;;;;5055181;28;20039;-49
2024/01/15 10:13:52;;;;;;;103.53;58.85;;;;;;;;;;5055022;28;20199;-48
2024/01/15 10:16:18;;;;;;;106.53;60.70;;;;;;;;;;5053924;28;20033;-48
2024/01/15 10:18:44;;;;;;;104.13;58.38;;;;;;;;;;5053850;28;20025;-51
2024/01/15 10:21:10;;;;;;;101.38;59.60;;;;;;;;;;5054967;28;20029;-48
2024/01/15 10:23:36;;;;;;;100.03;60.65;;;;;;;;;;5054850;28;20029;-47
2024/01/15 10:26:03;;;;;;;101.63;59.47;;;;;;;;;;5054888;28;20029;-48
2024/01/15 10:28:31;;;;;;;94.88;59.35;;;;;;;;;;5053471;28;20036;-48
2024/01/15 10:31:01;;;;;;;100.53;60.03;;;;;;;;;;5036883;28;20021;-48
2024/01/15 10:33:27;;;;;;;102.38;59.00;;;;;;;;;;5054612;28;20061;-48
2024/01/15 10:35:57;;;;;;;101.55;62.45;;;;;;;;;;5054936;28;20114;-47
2024/01/15 10:40:54;;;;;;;98.30;62.40;;;;;;;;;;5034012;22;20534;-49
2024/01/15 10:43:20;;;;;;;96.35;59.03;;;;;;;;;;5014742;28;20029;-48
2024/01/15 10:45:47;;;;;;;102.97;65.88;;;;;;;;;;5014605;28;20045;-49
2024/01/15 10:48:13;;;;;;;97.75;59.65;;;;;;;;;;5014821;28;20109;-47
2024/01/15 10:50:40;;;;;;;100.63;66.22;;;;;;;;;;5013300;28;20496;-52
2024/01/15 10:53:06;;;;;;;104.55;67.35;;;;;;;;;;5013248;28;20562;-50
2024/01/15 10:55:34;;;;;;;94.47;58.03;;;;;;;;;;5014276;28;20060;-48
2024/01/15 10:58:00;;;;;;;92.93;54.72;;;;;;;;;;5014488;28;20265;-52
2024/01/15 11:00:26;;;;;;;99.38;64.55;;;;;;;;;;5013136;28;20029;-48
2024/01/15 11:02:56;;;;;;;101.20;59.83;;;;;;;;;;5014613;28;20033;-47
2024/01/15 11:05:26;;;;;;;89.35;56.47;;;;;;;;;;5014183;28;20314;-51
2024/01/15 11:07:56;;;;;;;100.72;67.35;;;;;;;;;;5013056;28;20103;-50
2024/01/15 11:10:41;;;;;;;96.32;63.17;;;;;;;;;;5014223;28;20026;-49
2024/01/15 11:13:11;;;;;;;95.90;60.58;;;;;;;;;;5013741;28;20073;-47
2024/01/15 11:15:59;;;;;;;90.95;58.67;;;;;;;;;;5016762;28;20033;-47
2024/01/15 11:18:29;;;;;;;103.50;66.30;;;;;;;;;;5018855;28;20030;-52
2024/01/15 11:21:08;;;;;;;93.63;56.38;;;;;;;;;;5011233;28;20034;-47
2024/01/15 11:23:50;;;;;;;88.88;56.17;;;;;;;;;;4997154;28;20021;-49
2024/01/15 11:26:32;;;;;;;97.85;59.22;;;;;;;;;;5013555;28;20515;-47
2024/01/15 11:28:59;;;;;;;90.65;56.72;;;;;;;;;;5013493;28;20065;-49
2024/01/15 11:31:41;;;;;;;96.25;58.33;;;;;;;;;;5012332;28;20026;-48
2024/01/15 11:34:08;;;;;;;96.28;64.20;;;;;;;;;;5010435;28;20029;-49
2024/01/15 11:36:46;;;;;;;93.18;57.10;;;;;;;;;;5021356;28;20033;-51
2024/01/15 11:39:27;;;;;;;88.43;58.38;;;;;;;;;;5019279;28;20061;-48
2024/01/15 11:41:57;;;;;;;89.72;56.75;;;;;;;;;;5004891;28;20057;-48
2024/01/15 11:44:23;;;;;;;91.00;58.15;;;;;;;;;;5018100;28;20120;-50
2024/01/15 11:47:00;;;;;;;85.15;55.95;;;;;;;;;;5021996;28;20034;-49
2024/01/15 11:49:41;;;;;;;92.95;59.03;;;;;;;;;;5027082;28;20036;-48
2024/01/15 11:52:11;;;;;;;89.68;59.90;;;;;;;;;;5013477;28;20037;-47
2024/01/15 11:54:43;;;;;;;91.90;58.63;;;;;;;;;;5012113;28;20121;-49
2024/01/15 11:57:10;;;;;;;83.55;55.10;;;;;;;;;;5029145;28;20052;-47
2024/01/15 11:59:37;;;;;;;84.35;55.63;;;;;;;;;;5026022;28;20088;-49
2024/01/15 12:02:04;;;;;;;90.57;63.20;;;;;;;;;;5026304;28;20039;-49
2024/01/15 12:04:30;;;;;;;92.83;60.03;;;;;;;;;;5029751;28;20031;-48
2024/01/15 12:06:56;;;;;;;94.88;60.83;;;;;;;;;;5008811;28;20327;-47
2024/01/15 12:09:22;;;;;;;96.30;64.75;;;;;;;;;;5012574;28;20530;-48
2024/01/15 12:11:51;;;;;;;98.77;66.73;;;;;;;;;;5011612;28;20386;-49
2024/01/15 12:14:18;;;;;;;93.43;67.70;;;;;;;;;;5012223;28;20032;-48
2024/01/15 12:16:44;;;;;;;99.03;62.97;;;;;;;;;;5024559;28;20021;-47
2024/01/15 12:19:10;;;;;;;91.47;60.53;;;;;;;;;;5004982;28;20029;-47
2024/01/15 12:21:40;;;;;;;85.55;58.80;;;;;;;;;;5015689;28;20037;-49
2024/01/15 12:24:07;;;;;;;78.80;52.42;;;;;;;;;;5030673;28;20104;-50
2024/01/15 12:26:34;;;;;;;72.03;50.38;;;;;;;;;;5029062;28;20037;-49
2024/01/15 12:29:03;;;;;;;59.97;43.73;;;;;;;;;;5016625;28;20050;-47
2024/01/15 12:31:30;;;;;;;63.70;44.03;;;;;;;;;;5017655;28;20280;-49
2024/01/15 12:33:56;;;;;;;52.88;39.03;;;;;;;;;;5011116;28;20065;-47
2024/01/15 12:36:23;;;;;;;54.60;39.90;;;;;;;;;;5020071;28;20036;-50
2024/01/15 12:38:49;;;;;;;56.50;40.85;;;;;;;;;;5031043;28;21149;-48
2024/01/15 12:41:15;;;;;;;59.97;43.30;;;;;;;;;;5030773;28;20030;-48
2024/01/15 12:43:42;;;;;;;58.90;42.05;;;;;;;;;;5019869;28;20029;-49
2024/01/15 12:46:08;;;;;;;60.63;44.28;;;;;;;;;;5018213;28;20060;-51
2024/01/15 12:48:35;;;;;;;51.15;39.03;;;;;;;;;;5030259;28;20380;-50
2024/01/15 12:51:01;;;;;;;52.05;39.03;;;;;;;;;;4990114;28;20034;-48
2024/01/15 12:53:27;;;;;;;48.10;36.42;;;;;;;;;;4989802;28;20512;-48
2024/01/15 12:55:53;;;;;;;51.90;39.33;;;;;;;;;;4991816;28;20381;-50
2024/01/15 12:58:19;;;;;;;52.25;39.70;;;;;;;;;;5006380;28;20021;-50
2024/01/15 13:00:46;;;;;;;52.58;38.03;;;;;;;;;;5017567;28;20040;-50
2024/01/15 13:03:13;;;;;;;57.88;41.35;;;;;;;;;;5030479;28;20031;-50
2024/01/15 13:05:40;;;;;;;52.30;38.92;;;;;;;;;;5028175;28;20041;-49
2024/01/15 13:08:07;;;;;;;52.35;39.88;;;;;;;;;;5016679;28;20108;-49
2024/01/15 13:10:33;;;;;;;48.22;37.88;;;;;;;;;;5010937;28;20030;-51
2024/01/15 13:12:59;;;;;;;45.40;36.08;;;;;;;;;;5010682;28;20022;-50
2024/01/15 13:15:25;;;;;;;50.37;36.17;;;;;;;;;;5017717;28;20032;-50
2024/01/15 13:17:51;;;;;;;48.20;36.38;;;;;;;;;;5013019;28;20021;-47
2024/01/15 13:20:18;;;;;;;49.40;37.87;;;;;;;;;;5009032;28;20496;-48
2024/01/15 13:22:44;;;;;;;46.17;36.20;;;;;;;;;;5010865;28;20029;-48
2024/01/15 13:25:11;;;;;;;44.20;35.17;;;;;;;;;;5022421;28;20388;-51
2024/01/15 13:27:37;;;;;;;45.17;33.13;;;;;;;;;;5024424;28;20568;-47
2024/01/15 13:30:06;;;;;;;42.33;33.80;;;;;;;;;;5030909;28;20064;-49
2024/01/15 13:32:32;;;;;;;45.35;34.40;;;;;;;;;;5031463;28;20043;-49
2024/01/15 13:34:58;;;;;;;45.78;33.85;;;;;;;;;;5031790;28;20116;-49
2024/01/15 13:37:25;;;;;;;45.97;35.58;;;;;;;;;;5013318;28;20488;-48
2024/01/15 13:39:54;;;;;;;43.55;33.50;;;;;;;;;;5031358;28;20080;-48
2024/01/15 13:42:23;;;;;;;41.80;30.85;;;;;;;;;;5031472;28;20037;-52
2024/01/15 13:44:50;;;;;;;40.67;29.83;;;;;;;;;;5031262;28;20029;-50
2024/01/15 13:47:16;;;;;;;42.58;29.13;;;;;;;;;;5030240;28;20040;-50
2024/01/15 13:49:43;;;;;;;42.43;30.67;;;;;;;;;;5031430;28;20030;-53
2024/01/15 13:52:09;;;;;;;47.07;35.83;;;;;;;;;;5031339;28;20075;-50
2024/01/15 13:54:35;;;;;;;46.70;34.33;;;;;;;;;;5029967;28;20034;-50
2024/01/15 13:57:01;;;;;;;39.07;30.27;;;;;;;;;;5031432;28;20021;-51
2024/01/15 13:59:27;;;;;;;35.95;27.35;;;;;;;;;;5031384;28;20419;-51
2024/01/15 14:01:53;;;;;;;38.80;27.63;;;;;;;;;;5031438;28;20395;-48
2024/01/15 14:04:20;;;;;;;38.63;29.17;;;;;;;;;;5013568;28;20044;-54
2024/01/15 14:06:46;;;;;;;40.28;31.73;;;;;;;;;;5029740;28;20555;-52
2024/01/15 14:09:14;;;;;;;40.00;29.60;;;;;;;;;;5022086;28;20104;-48
2024/01/15 14:11:40;;;;;;;40.63;30.98;;;;;;;;;;5021342;28;20022;-46